createdAt,value
2022-09-24T00:00:34.044Z,16.26
2022-09-24T00:05:35.751Z,16.01
2022-09-24T00:10:36.228Z,15.82
2022-09-24T00:15:37.200Z,15.79
2022-09-24T00:20:34.697Z,15.59
2022-09-24T00:25:49.914Z,15.32
2022-09-24T00:30:49.797Z,14.91
2022-09-24T00:35:46.721Z,14.37
2022-09-24T00:40:43.579Z,14.14
2022-09-24T00:45:42.080Z,13.89
2022-09-24T00:50:45.319Z,13.36
2022-09-24T00:55:44.996Z,13.36
2022-09-24T01:00:49.754Z,12.80
2022-09-24T01:05:48.331Z,12.81
2022-09-24T01:10:52.701Z,12.57
2022-09-24T01:15:51.931Z,12.55
2022-09-24T01:20:59.920Z,12.80
2022-09-24T01:26:03.345Z,12.88
2022-09-24T01:31:04.953Z,13.00
2022-09-24T01:36:06.345Z,13.11
2022-09-24T01:41:10.406Z,12.75
2022-09-24T01:46:10.187Z,12.68
2022-09-24T01:51:14.610Z,12.60
2022-09-24T01:56:15.974Z,12.39
2022-09-24T02:01:17.404Z,12.33
2022-09-24T02:06:16.194Z,12.25
2022-09-24T02:11:15.490Z,12.30
2022-09-24T02:16:15.714Z,12.32
2022-09-24T02:21:17.062Z,12.18
2022-09-24T02:26:16.925Z,12.06
2022-09-24T02:31:19.084Z,11.84
2022-09-24T02:36:17.609Z,12.13
2022-09-24T02:41:15.348Z,11.88
2022-09-24T02:46:12.178Z,12.10
2022-09-24T02:51:11.367Z,12.09
2022-09-24T02:56:08.963Z,11.73
2022-09-24T03:01:07.534Z,11.61
2022-09-24T03:06:04.484Z,11.58
2022-09-24T03:11:01.191Z,11.56
2022-09-24T03:16:01.516Z,11.44
2022-09-24T03:21:01.837Z,11.33
2022-09-24T03:26:00.621Z,11.35
2022-09-24T03:31:01.426Z,11.35
2022-09-24T03:35:59.074Z,11.24
2022-09-24T03:40:58.313Z,11.13
2022-09-24T03:45:55.315Z,11.17
2022-09-24T03:50:55.106Z,11.08
2022-09-24T03:55:56.294Z,11.07
2022-09-24T04:00:55.235Z,11.15
2022-09-24T04:05:55.871Z,11.10
2022-09-24T04:10:52.843Z,10.95
2022-09-24T04:15:51.106Z,10.98
2022-09-24T04:20:50.929Z,10.88
2022-09-24T04:25:50.607Z,10.97
2022-09-24T04:30:50.026Z,10.79
2022-09-24T04:35:47.067Z,10.71
2022-09-24T04:40:46.700Z,11.00
2022-09-24T04:45:44.439Z,10.88
2022-09-24T04:50:46.293Z,10.88
2022-09-24T04:55:43.982Z,11.10
2022-09-24T05:00:42.676Z,11.01
2022-09-24T05:05:41.124Z,10.87
2022-09-24T05:10:48.229Z,10.73
2022-09-24T05:15:47.875Z,10.69
2022-09-24T05:20:46.197Z,10.86
2022-09-24T05:25:57.378Z,10.96
2022-09-24T05:30:56.787Z,11.04
2022-09-24T05:35:54.858Z,11.03
2022-09-24T05:40:51.717Z,11.04
2022-09-24T05:45:52.144Z,11.15
2022-09-24T05:50:54.652Z,11.44
2022-09-24T05:55:53.611Z,11.33
2022-09-24T06:00:53.186Z,11.31
2022-09-24T06:05:51.568Z,11.27
2022-09-24T06:10:48.875Z,11.41
2022-09-24T06:15:47.707Z,11.20
2022-09-24T06:20:47.082Z,11.40
2022-09-24T06:25:48.937Z,11.46
2022-09-24T06:30:47.209Z,11.67
2022-09-24T06:35:47.482Z,11.70
2022-09-24T06:40:47.893Z,11.88
2022-09-24T06:45:46.572Z,11.73
2022-09-24T06:50:44.886Z,12.06
2022-09-24T06:55:42.102Z,12.26
2022-09-24T07:00:54.439Z,12.37
2022-09-24T07:05:51.988Z,12.44
2022-09-24T07:10:52.094Z,12.73
2022-09-24T07:15:51.165Z,12.84
2022-09-24T07:20:54.990Z,13.21
2022-09-24T07:25:55.383Z,13.30
2022-09-24T07:31:00.576Z,13.36
2022-09-24T07:35:58.401Z,13.36
2022-09-24T07:40:58.811Z,13.57
2022-09-24T07:46:00.728Z,13.68
2022-09-24T07:50:58.195Z,13.92
2022-09-24T07:56:01.024Z,14.13
2022-09-24T08:01:05.063Z,14.31
2022-09-24T08:06:03.832Z,14.40
2022-09-24T08:11:03.276Z,14.60
2022-09-24T08:16:01.134Z,14.78
2022-09-24T08:21:00.882Z,15.13
2022-09-24T08:25:58.426Z,15.45
2022-09-24T08:30:59.995Z,15.52
2022-09-24T08:35:59.177Z,15.92
2022-09-24T08:41:04.381Z,16.14
2022-09-24T08:46:23.574Z,16.10
2022-09-24T08:51:24.098Z,16.21
2022-09-24T08:56:26.652Z,16.46
2022-09-24T09:01:31.586Z,16.37
2022-09-24T09:06:46.310Z,16.43
2022-09-24T09:11:50.350Z,16.77
2022-09-24T09:16:53.002Z,16.78
2022-09-24T09:21:53.380Z,16.86
2022-09-24T09:26:51.339Z,17.07
2022-09-24T09:31:56.367Z,17.37
2022-09-24T09:37:06.135Z,17.62
2022-09-24T09:42:11.286Z,17.79
2022-09-24T09:47:16.586Z,17.79
2022-09-24T09:52:15.718Z,17.72
2022-09-24T09:57:16.579Z,17.84
2022-09-24T10:02:23.112Z,17.92
2022-09-24T10:07:20.706Z,17.92
2022-09-24T10:12:28.132Z,18.04
2022-09-24T10:17:28.041Z,18.33
2022-09-24T10:22:39.233Z,18.47
2022-09-24T10:27:38.102Z,18.70
2022-09-24T10:32:48.299Z,18.69
2022-09-24T10:38:29.591Z,18.90
2022-09-24T10:43:31.668Z,18.95
2022-09-24T10:48:32.529Z,19.14
2022-09-24T10:53:38.358Z,19.01
2022-09-24T10:58:48.201Z,19.25
2022-09-24T11:04:05.446Z,19.30
2022-09-24T11:09:13.144Z,19.06
2022-09-24T11:14:20.023Z,19.18
2022-09-24T11:19:30.099Z,19.13
2022-09-24T11:24:34.277Z,19.33
2022-09-24T11:29:45.263Z,19.35
2022-09-24T11:35:51.839Z,19.60
2022-09-24T11:47:21.384Z,19.31
2022-09-24T11:58:26.327Z,19.79
2022-09-24T12:03:32.374Z,19.79
2022-09-24T12:08:32.845Z,19.68
2022-09-24T12:13:34.138Z,19.94
2022-09-24T12:18:33.925Z,19.82
2022-09-24T12:23:38.630Z,19.82
2022-09-24T12:29:05.648Z,19.82
2022-09-24T12:34:14.625Z,19.78
2022-09-24T12:39:17.943Z,19.87
2022-09-24T12:44:21.975Z,20.04
2022-09-24T12:49:30.528Z,20.03
2022-09-24T12:54:31.789Z,20.28
2022-09-24T12:59:29.667Z,19.99
2022-09-24T13:04:28.258Z,20.04
2022-09-24T13:09:37.927Z,20.12
2022-09-24T13:14:35.070Z,20.22
2022-09-24T13:19:35.271Z,20.12
2022-09-24T13:24:45.288Z,20.20
2022-09-24T13:29:46.009Z,20.33
2022-09-24T13:34:44.758Z,20.35
2022-09-24T13:39:46.139Z,20.39
2022-09-24T13:44:46.432Z,20.26
2022-09-24T13:49:46.911Z,20.17
2022-09-24T13:54:51.553Z,20.23
2022-09-24T13:59:48.306Z,20.31
2022-09-24T14:04:54.301Z,20.11
2022-09-24T14:10:01.510Z,20.11
2022-09-24T14:14:59.341Z,20.08
2022-09-24T14:19:57.006Z,20.08
2022-09-24T14:24:56.272Z,20.12
2022-09-24T14:29:55.470Z,20.07
2022-09-24T14:34:53.301Z,20.22
2022-09-24T14:39:56.488Z,20.23
2022-09-24T14:44:56.633Z,20.03
2022-09-24T14:49:56.961Z,20.15
2022-09-24T14:55:15.321Z,20.27
2022-09-24T15:00:19.606Z,20.49
2022-09-24T15:05:57.462Z,20.36
2022-09-24T15:10:58.878Z,20.51
2022-09-24T15:16:02.953Z,20.37
2022-09-24T15:21:00.031Z,20.40
2022-09-24T15:25:58.790Z,20.20
2022-09-24T15:37:23.139Z,20.11
2022-09-24T15:42:26.645Z,20.14
2022-09-24T15:47:23.543Z,20.00
2022-09-24T15:52:25.415Z,19.89
2022-09-24T15:57:25.396Z,19.94
2022-09-24T16:02:38.610Z,19.69
2022-09-24T16:07:36.039Z,19.65
2022-09-24T16:12:32.658Z,19.60
2022-09-24T16:17:30.056Z,19.43
2022-09-24T16:22:28.026Z,19.49
2022-09-24T16:27:24.777Z,19.46
2022-09-24T16:32:21.510Z,19.18
2022-09-24T16:37:20.447Z,19.12
2022-09-24T16:42:17.197Z,19.17
2022-09-24T16:47:15.702Z,18.95
2022-09-24T16:52:14.217Z,18.96
2022-09-24T16:57:18.749Z,19.05
2022-09-24T17:02:19.878Z,18.78
2022-09-24T17:07:17.305Z,18.70
2022-09-24T17:12:17.618Z,18.95
2022-09-24T17:17:14.361Z,18.92
2022-09-24T17:22:12.175Z,18.72
2022-09-24T17:27:09.092Z,18.70
2022-09-24T17:32:12.519Z,18.58
2022-09-24T17:37:11.750Z,18.62
2022-09-24T17:42:08.597Z,18.55
2022-09-24T17:47:07.216Z,18.37
2022-09-24T17:52:04.486Z,18.38
2022-09-24T17:57:01.541Z,18.46
2022-09-24T18:01:59.686Z,18.25
2022-09-24T18:07:36.922Z,18.36
2022-09-24T18:12:34.376Z,18.31
2022-09-24T18:17:31.085Z,18.38
2022-09-24T18:22:29.042Z,18.33
2022-09-24T18:27:25.821Z,18.15
2022-09-24T18:32:26.066Z,18.26
2022-09-24T18:37:26.197Z,18.41
2022-09-24T18:42:29.693Z,18.33
2022-09-24T18:47:27.391Z,18.16
2022-09-24T18:52:26.021Z,18.08
2022-09-24T18:57:22.954Z,18.17
2022-09-24T19:02:23.364Z,18.12
2022-09-24T19:07:21.683Z,17.91
2022-09-24T19:12:21.997Z,17.98
2022-09-24T19:17:18.853Z,17.74
2022-09-24T19:22:15.917Z,17.81
2022-09-24T19:27:15.894Z,17.68
2022-09-24T19:32:12.742Z,17.71
2022-09-24T19:37:12.135Z,17.59
2022-09-24T19:42:09.089Z,17.84
2022-09-24T19:47:10.555Z,17.77
2022-09-24T19:52:13.147Z,17.80
2022-09-24T19:57:11.566Z,17.75
2022-09-24T20:02:14.174Z,17.86
2022-09-24T20:07:17.388Z,17.62
2022-09-24T20:12:19.569Z,17.68
2022-09-24T20:17:17.002Z,17.57
2022-09-24T20:22:17.369Z,17.94
2022-09-24T20:27:54.887Z,18.16
2022-09-24T20:32:57.858Z,18.40
2022-09-24T20:37:54.743Z,18.47
2022-09-24T20:42:51.579Z,18.48
2022-09-24T20:47:49.939Z,18.46
2022-09-24T20:52:47.652Z,18.56
2022-09-24T20:57:45.765Z,18.70
2022-09-24T21:02:48.511Z,18.58
2022-09-24T21:08:15.997Z,18.58
2022-09-24T21:13:19.953Z,18.71
2022-09-24T21:18:40.062Z,18.83
2022-09-24T21:23:41.833Z,18.21
2022-09-24T21:29:12.994Z,18.29
2022-09-24T21:34:15.740Z,18.49
2022-09-24T21:39:15.529Z,18.60
2022-09-24T21:44:20.892Z,18.50
2022-09-24T21:49:36.343Z,18.47
2022-09-24T21:54:57.036Z,18.37
2022-09-24T22:00:14.851Z,18.38
2022-09-24T22:05:27.130Z,18.25
2022-09-24T22:10:34.916Z,18.26
2022-09-24T22:15:51.003Z,18.11
2022-09-24T22:20:53.084Z,18.16
2022-09-24T22:25:59.158Z,18.07
2022-09-24T22:31:22.796Z,17.98
2022-09-24T22:36:40.700Z,17.85
2022-09-24T22:47:03.906Z,17.92
2022-09-24T22:52:07.453Z,17.80
2022-09-24T22:57:04.406Z,17.78
2022-09-24T23:02:13.442Z,17.82
2022-09-24T23:07:16.596Z,17.77
2022-09-24T23:12:27.328Z,17.71
2022-09-24T23:17:40.763Z,17.61
2022-09-24T23:22:41.341Z,17.74
2022-09-24T23:27:38.268Z,17.65
2022-09-24T23:32:46.428Z,17.56
2022-09-24T23:37:46.079Z,17.45
2022-09-24T23:42:43.521Z,17.43
2022-09-24T23:47:40.604Z,17.47
2022-09-24T23:52:40.494Z,17.49
2022-09-24T23:57:55.686Z,17.40
